createdAt,value
2019-05-20T00:01:18.641Z,99.90
2019-05-20T00:03:48.803Z,99.90
2019-05-20T00:06:18.804Z,99.90
2019-05-20T00:08:48.973Z,99.90
2019-05-20T00:11:18.985Z,99.90
2019-05-20T00:13:49.022Z,99.90
2019-05-20T00:16:19.097Z,99.90
2019-05-20T00:18:49.215Z,99.90
2019-05-20T00:21:19.284Z,99.90
2019-05-20T00:23:50.304Z,99.90
2019-05-20T00:26:20.485Z,99.90
2019-05-20T00:28:50.622Z,99.90
2019-05-20T00:31:20.725Z,99.90
2019-05-20T00:33:50.891Z,99.90
2019-05-20T00:36:21.032Z,99.90
2019-05-20T00:39:08.587Z,99.90
2019-05-20T00:41:38.658Z,99.90
2019-05-20T00:44:08.774Z,99.90
2019-05-20T00:46:38.764Z,99.90
2019-05-20T00:49:08.868Z,99.90
2019-05-20T00:51:38.976Z,99.90
2019-05-20T00:54:09.040Z,99.90
2019-05-20T00:56:39.170Z,99.90
2019-05-20T00:59:09.268Z,99.90
2019-05-20T01:01:39.377Z,99.90
2019-05-20T01:04:09.469Z,99.90
2019-05-20T01:06:39.472Z,99.90
2019-05-20T01:09:10.544Z,99.90
2019-05-20T01:11:40.623Z,99.90
2019-05-20T01:14:10.735Z,99.90
2019-05-20T01:16:40.875Z,99.90
2019-05-20T01:19:10.987Z,99.90
2019-05-20T01:21:41.061Z,99.90
2019-05-20T01:24:11.179Z,99.90
2019-05-20T01:26:41.275Z,99.90
2019-05-20T01:29:11.278Z,99.90
2019-05-20T01:31:41.378Z,99.90
2019-05-20T01:34:11.345Z,99.90
2019-05-20T01:36:41.465Z,99.90
2019-05-20T01:39:11.607Z,99.90
2019-05-20T01:41:41.644Z,99.90
2019-05-20T01:44:11.715Z,99.90
2019-05-20T01:46:41.743Z,99.90
2019-05-20T01:49:11.823Z,99.90
2019-05-20T01:51:41.923Z,99.90
2019-05-20T01:54:12.077Z,99.90
2019-05-20T01:56:42.147Z,99.90
2019-05-20T01:59:12.195Z,99.90
2019-05-20T02:01:42.368Z,99.90
2019-05-20T02:04:12.560Z,99.90
2019-05-20T02:06:42.682Z,99.90
2019-05-20T02:09:12.613Z,99.90
2019-05-20T02:11:42.791Z,99.90
2019-05-20T02:14:15.476Z,99.90
2019-05-20T02:16:45.586Z,99.90
2019-05-20T02:19:15.672Z,99.90
2019-05-20T02:21:45.721Z,99.90
2019-05-20T02:24:16.836Z,99.90
2019-05-20T02:26:46.832Z,99.90
2019-05-20T02:29:16.880Z,99.90
2019-05-20T02:31:46.947Z,99.90
2019-05-20T02:34:16.996Z,99.90
2019-05-20T02:36:47.039Z,99.90
2019-05-20T02:39:17.144Z,99.90
2019-05-20T02:41:47.365Z,99.90
2019-05-20T02:44:17.428Z,99.90
2019-05-20T02:46:47.534Z,99.90
2019-05-20T02:49:17.610Z,99.90
2019-05-20T02:51:47.709Z,99.90
2019-05-20T02:54:17.774Z,99.90
2019-05-20T02:56:47.901Z,99.90
2019-05-20T02:59:17.894Z,99.90
2019-05-20T03:01:47.928Z,99.90
2019-05-20T03:04:17.932Z,99.90
2019-05-20T03:06:47.980Z,99.90
2019-05-20T03:09:18.029Z,99.90
2019-05-20T03:11:48.078Z,99.90
2019-05-20T03:14:18.114Z,99.90
2019-05-20T03:16:48.179Z,99.90
2019-05-20T03:19:18.290Z,99.90
2019-05-20T03:21:48.363Z,99.90
2019-05-20T03:24:18.463Z,99.90
2019-05-20T03:26:48.603Z,99.90
2019-05-20T03:29:18.673Z,99.90
2019-05-20T03:31:48.727Z,99.90
2019-05-20T03:34:43.472Z,99.90
2019-05-20T03:36:50.528Z,99.90
2019-05-20T03:39:20.566Z,99.90
2019-05-20T03:41:50.645Z,99.90
2019-05-20T03:44:20.722Z,99.90
2019-05-20T03:46:50.824Z,99.90
2019-05-20T03:49:20.861Z,99.90
2019-05-20T03:51:52.536Z,99.90
2019-05-20T03:54:22.801Z,99.90
2019-05-20T03:56:52.882Z,99.90
2019-05-20T03:59:23.001Z,99.90
2019-05-20T04:01:53.005Z,99.90
2019-05-20T04:04:25.169Z,99.90
2019-05-20T04:06:54.803Z,99.90
2019-05-20T04:09:24.840Z,99.90
2019-05-20T04:11:54.958Z,99.90
2019-05-20T04:14:25.004Z,99.90
2019-05-20T04:16:55.041Z,99.90
2019-05-20T04:19:26.070Z,99.90
2019-05-20T04:21:56.133Z,99.90
2019-05-20T04:24:26.207Z,99.90
2019-05-20T04:27:00.251Z,99.90
2019-05-20T04:29:30.371Z,99.90
2019-05-20T04:32:00.364Z,99.90
2019-05-20T04:34:31.978Z,99.90
2019-05-20T04:37:02.043Z,99.90
2019-05-20T04:39:32.093Z,99.90
2019-05-20T04:42:06.303Z,99.90
2019-05-20T04:44:34.016Z,99.90
2019-05-20T04:47:04.061Z,99.90
2019-05-20T04:49:34.120Z,99.90
2019-05-20T04:52:04.204Z,99.90
2019-05-20T04:54:34.251Z,99.90
2019-05-20T04:57:04.371Z,99.90
2019-05-20T04:59:34.312Z,99.90
2019-05-20T05:02:04.356Z,99.90
2019-05-20T05:04:34.368Z,99.90
2019-05-20T05:07:04.484Z,99.90
2019-05-20T05:09:34.572Z,99.90
2019-05-20T05:12:04.782Z,99.90
2019-05-20T05:14:34.787Z,99.90
2019-05-20T05:17:04.916Z,99.90
2019-05-20T05:19:34.992Z,99.90
2019-05-20T05:22:05.143Z,99.90
2019-05-20T05:24:35.255Z,99.90
2019-05-20T05:27:05.368Z,99.90
2019-05-20T05:29:35.421Z,99.90
2019-05-20T05:32:06.403Z,99.90
2019-05-20T05:34:36.537Z,99.90
2019-05-20T05:37:06.612Z,99.90
2019-05-20T05:39:36.600Z,99.90
2019-05-20T05:42:06.644Z,99.90
2019-05-20T05:44:36.707Z,99.90
2019-05-20T05:47:06.755Z,99.90
2019-05-20T05:49:36.623Z,99.90
2019-05-20T05:52:06.761Z,99.90
2019-05-20T05:54:36.720Z,99.90
2019-05-20T05:57:06.833Z,99.90
2019-05-20T05:59:36.775Z,99.90
2019-05-20T06:02:06.891Z,99.90
2019-05-20T06:04:36.948Z,99.90
2019-05-20T06:07:07.028Z,99.90
2019-05-20T06:09:37.014Z,99.90
2019-05-20T06:12:07.068Z,99.90
2019-05-20T06:14:37.162Z,99.90
2019-05-20T06:17:07.270Z,99.90
2019-05-20T06:19:37.211Z,99.90
2019-05-20T06:22:07.331Z,99.90
2019-05-20T06:24:37.396Z,99.90
2019-05-20T06:27:07.480Z,99.90
2019-05-20T06:29:37.495Z,99.90
2019-05-20T06:32:07.604Z,99.90
2019-05-20T06:34:37.711Z,99.90
2019-05-20T06:37:12.160Z,99.90
2019-05-20T06:39:42.234Z,99.90
2019-05-20T06:42:12.347Z,99.90
2019-05-20T06:44:52.177Z,99.90
2019-05-20T06:47:14.062Z,99.90
2019-05-20T06:49:44.050Z,99.90
2019-05-20T06:52:14.128Z,99.90
2019-05-20T06:54:44.291Z,99.90
2019-05-20T06:57:14.391Z,99.90
2019-05-20T06:59:44.506Z,99.90
2019-05-20T07:02:14.745Z,99.90
2019-05-20T07:04:44.998Z,99.90
2019-05-20T07:07:20.942Z,99.90
2019-05-20T07:09:46.920Z,99.90
2019-05-20T07:12:17.467Z,99.90
2019-05-20T07:14:47.499Z,99.90
2019-05-20T07:17:17.729Z,99.90
2019-05-20T07:19:47.887Z,99.90
2019-05-20T07:22:18.090Z,99.90
2019-05-20T07:24:48.367Z,99.90
2019-05-20T07:27:18.919Z,99.90
2019-05-20T07:29:49.109Z,99.90
2019-05-20T07:32:19.228Z,99.90
2019-05-20T07:34:49.275Z,99.90
2019-05-20T07:37:19.459Z,99.90
2019-05-20T07:39:49.472Z,99.90
2019-05-20T07:42:19.641Z,99.90
2019-05-20T07:44:51.232Z,99.90
2019-05-20T07:47:21.384Z,99.90
2019-05-20T07:49:51.782Z,99.90
2019-05-20T07:52:24.473Z,99.90
2019-05-20T07:54:55.945Z,99.90
2019-05-20T07:57:26.675Z,99.90
2019-05-20T08:00:02.154Z,99.90
2019-05-20T08:02:29.766Z,99.90
2019-05-20T08:05:00.021Z,99.90
2019-05-20T08:07:50.773Z,99.90
2019-05-20T08:10:02.265Z,99.90
2019-05-20T08:12:32.426Z,99.90
2019-05-20T08:15:02.766Z,99.90
2019-05-20T08:17:32.925Z,99.90
2019-05-20T08:20:03.387Z,99.60
2019-05-20T08:22:33.455Z,99.50
2019-05-20T08:25:05.500Z,99.90
2019-05-20T08:27:35.904Z,99.70
2019-05-20T08:30:09.506Z,99.90
2019-05-20T08:32:39.802Z,99.10
2019-05-20T08:35:10.277Z,97.80
2019-05-20T08:37:45.790Z,96.90
2019-05-20T08:40:14.643Z,97.10
2019-05-20T08:42:50.615Z,98.60
2019-05-20T08:45:18.300Z,98.30
2019-05-20T08:47:48.684Z,98.80
2019-05-20T08:50:19.681Z,99.90
2019-05-20T08:52:50.735Z,99.00
2019-05-20T08:55:21.862Z,99.00
2019-05-20T08:58:11.552Z,98.70
2019-05-20T09:00:42.544Z,97.60
2019-05-20T09:03:13.548Z,96.50
2019-05-20T09:05:43.928Z,98.30
2019-05-20T09:08:14.242Z,96.40
2019-05-20T09:10:44.583Z,97.80
2019-05-20T09:13:15.463Z,97.50
2019-05-20T09:15:46.094Z,95.70
2019-05-20T09:18:16.958Z,97.50
2019-05-20T09:20:47.375Z,95.60
2019-05-20T09:23:17.679Z,96.30
2019-05-20T09:25:48.000Z,96.10
2019-05-20T09:28:18.319Z,96.30
2019-05-20T09:30:48.614Z,94.80
2019-05-20T09:33:18.919Z,96.00
2019-05-20T09:35:49.303Z,99.60
2019-05-20T09:38:21.463Z,97.40
2019-05-20T09:40:51.926Z,95.90
2019-05-20T09:43:22.219Z,95.30
2019-05-20T09:46:06.706Z,95.50
2019-05-20T09:48:25.979Z,95.50
2019-05-20T09:50:56.268Z,96.70
2019-05-20T09:53:26.599Z,97.00
2019-05-20T09:55:57.484Z,96.10
2019-05-20T09:58:27.932Z,96.40
2019-05-20T10:00:58.234Z,97.40
2019-05-20T10:03:28.532Z,97.40
2019-05-20T10:05:58.857Z,98.50
2019-05-20T10:08:37.907Z,98.90
2019-05-20T10:11:01.493Z,99.90
2019-05-20T10:13:31.758Z,99.60
2019-05-20T10:16:02.800Z,99.30
2019-05-20T10:18:37.116Z,99.80
2019-05-20T10:21:05.408Z,99.90
2019-05-20T10:23:35.751Z,99.90
2019-05-20T10:26:05.934Z,99.90
2019-05-20T10:28:36.032Z,99.90
2019-05-20T10:31:06.300Z,99.10
2019-05-20T10:33:37.247Z,98.20
2019-05-20T10:36:07.553Z,99.40
2019-05-20T10:38:54.675Z,99.30
2019-05-20T10:41:09.354Z,99.90
2019-05-20T10:43:39.452Z,99.90
2019-05-20T10:46:09.551Z,99.90
2019-05-20T10:48:39.703Z,99.90
2019-05-20T10:51:10.482Z,99.90
2019-05-20T10:53:40.736Z,99.90
2019-05-20T10:56:10.810Z,99.90
2019-05-20T10:58:41.060Z,99.90
2019-05-20T11:01:11.136Z,99.90
2019-05-20T11:03:41.921Z,99.40
2019-05-20T11:06:12.183Z,98.70
2019-05-20T11:08:42.619Z,99.00
2019-05-20T11:11:14.263Z,97.70
2019-05-20T11:13:44.756Z,96.60
2019-05-20T11:16:15.580Z,97.30
2019-05-20T11:18:45.776Z,98.20
2019-05-20T11:21:15.932Z,97.70
2019-05-20T11:23:46.063Z,99.00
2019-05-20T11:26:16.136Z,98.60
2019-05-20T11:28:46.243Z,99.00
2019-05-20T11:31:16.323Z,99.40
2019-05-20T11:33:46.487Z,99.20
2019-05-20T11:36:16.647Z,99.20
2019-05-20T11:38:46.891Z,98.80
2019-05-20T11:41:17.177Z,98.20
2019-05-20T11:43:47.349Z,97.00
2019-05-20T11:46:17.461Z,97.00
2019-05-20T11:48:47.675Z,96.80
2019-05-20T11:51:17.875Z,97.30
2019-05-20T11:53:48.053Z,97.30
2019-05-20T11:56:18.138Z,97.30
2019-05-20T11:58:48.109Z,97.80
2019-05-20T12:01:18.335Z,98.40
2019-05-20T12:03:50.243Z,98.10
2019-05-20T12:06:20.895Z,99.40
2019-05-20T12:08:50.909Z,98.40
2019-05-20T12:11:21.015Z,98.60
2019-05-20T12:13:51.083Z,99.20
2019-05-20T12:16:21.158Z,99.90
2019-05-20T12:18:52.079Z,99.90
2019-05-20T12:21:22.056Z,99.90
2019-05-20T12:23:52.150Z,99.90
2019-05-20T12:26:22.863Z,98.90
2019-05-20T12:28:53.049Z,98.70
2019-05-20T12:31:23.039Z,99.00
2019-05-20T12:33:53.134Z,97.80
2019-05-20T12:36:23.277Z,96.20
2019-05-20T12:38:53.264Z,94.90
2019-05-20T12:41:23.439Z,94.30
2019-05-20T12:44:10.799Z,94.70
2019-05-20T12:46:25.407Z,93.60
2019-05-20T12:48:55.554Z,92.40
2019-05-20T12:51:25.711Z,92.90
2019-05-20T12:53:55.774Z,92.30
2019-05-20T12:56:25.867Z,92.50
2019-05-20T12:58:56.001Z,92.40
2019-05-20T13:01:26.078Z,91.10
2019-05-20T13:03:56.229Z,91.70
2019-05-20T13:06:26.383Z,91.90
2019-05-20T13:08:56.505Z,90.70
2019-05-20T13:11:26.687Z,90.60
2019-05-20T13:13:56.757Z,92.00
2019-05-20T13:16:26.955Z,90.90
2019-05-20T13:18:57.030Z,91.80
2019-05-20T13:21:27.140Z,91.00
2019-05-20T13:23:57.974Z,91.10
2019-05-20T13:26:29.166Z,90.70
2019-05-20T13:28:59.929Z,90.70
2019-05-20T13:31:30.269Z,85.90
2019-05-20T13:34:00.434Z,86.30
2019-05-20T13:36:30.454Z,86.40
2019-05-20T13:39:00.598Z,86.80
2019-05-20T13:41:30.805Z,85.20
2019-05-20T13:44:00.974Z,88.40
2019-05-20T13:46:31.122Z,89.10
2019-05-20T13:49:01.127Z,88.00
2019-05-20T13:51:31.266Z,86.70
2019-05-20T13:54:01.383Z,86.70
2019-05-20T13:56:31.410Z,86.40
2019-05-20T13:59:01.357Z,87.30
2019-05-20T14:01:31.534Z,88.20
2019-05-20T14:04:01.759Z,87.50
2019-05-20T14:06:32.783Z,84.60
2019-05-20T14:09:07.310Z,84.40
2019-05-20T14:11:35.669Z,83.30
2019-05-20T14:14:05.868Z,84.00
2019-05-20T14:16:35.812Z,84.70
2019-05-20T14:19:06.831Z,83.90
2019-05-20T14:21:36.922Z,83.90
2019-05-20T14:24:07.110Z,84.50
2019-05-20T14:26:37.103Z,84.30
2019-05-20T14:29:07.283Z,85.50
2019-05-20T14:31:37.384Z,85.90
2019-05-20T14:34:07.667Z,85.50
2019-05-20T14:36:39.988Z,85.80
2019-05-20T14:39:09.409Z,87.70
2019-05-20T14:41:39.653Z,86.10
2019-05-20T14:44:09.771Z,85.30
2019-05-20T14:46:39.808Z,85.70
2019-05-20T14:49:09.892Z,85.80
2019-05-20T14:51:40.031Z,86.00
2019-05-20T14:54:10.040Z,86.40
2019-05-20T14:56:40.087Z,85.10
2019-05-20T14:59:10.175Z,83.40
2019-05-20T15:01:40.390Z,86.60
2019-05-20T15:04:10.486Z,87.80
2019-05-20T15:06:40.632Z,90.00
2019-05-20T15:09:11.171Z,90.10
2019-05-20T15:11:41.289Z,89.70
2019-05-20T15:14:11.471Z,90.60
2019-05-20T15:16:41.571Z,91.30
2019-05-20T15:19:11.568Z,91.40
2019-05-20T15:21:41.623Z,92.20
2019-05-20T15:24:11.760Z,92.30
2019-05-20T15:26:41.800Z,92.90
2019-05-20T15:29:26.919Z,92.10
2019-05-20T15:31:43.551Z,92.80
2019-05-20T15:34:13.545Z,92.20
2019-05-20T15:36:43.812Z,92.30
2019-05-20T15:39:13.855Z,92.40
2019-05-20T15:41:43.846Z,92.80
2019-05-20T15:44:14.101Z,93.00
2019-05-20T15:46:44.192Z,93.70
2019-05-20T15:49:15.312Z,93.30
2019-05-20T15:51:45.363Z,93.70
2019-05-20T15:54:15.411Z,94.30
2019-05-20T15:56:45.423Z,93.40
2019-05-20T15:59:15.541Z,94.60
2019-05-20T16:01:45.577Z,94.80
2019-05-20T16:04:15.616Z,94.30
2019-05-20T16:06:45.823Z,94.90
2019-05-20T16:09:17.299Z,95.70
2019-05-20T16:11:47.623Z,95.80
2019-05-20T16:14:17.737Z,95.70
2019-05-20T16:16:47.820Z,96.60
2019-05-20T16:19:18.876Z,97.60
2019-05-20T16:21:48.934Z,97.60
2019-05-20T16:24:19.064Z,97.30
2019-05-20T16:26:49.149Z,97.10
2019-05-20T16:29:19.279Z,98.20
2019-05-20T16:31:49.463Z,97.90
2019-05-20T16:34:19.590Z,97.20
2019-05-20T16:36:49.782Z,98.20
2019-05-20T16:39:20.763Z,98.20
2019-05-20T16:41:50.941Z,98.80
2019-05-20T16:44:21.053Z,99.20
2019-05-20T16:46:51.160Z,98.30
2019-05-20T16:49:21.273Z,97.70
2019-05-20T16:51:51.408Z,97.40
2019-05-20T16:54:21.529Z,97.50
2019-05-20T16:56:51.555Z,97.50
2019-05-20T16:59:21.723Z,97.80
2019-05-20T17:01:51.847Z,97.80
2019-05-20T17:04:21.952Z,97.50
2019-05-20T17:06:52.058Z,98.50
2019-05-20T17:09:22.051Z,98.80
2019-05-20T17:11:52.200Z,98.90
2019-05-20T17:14:23.272Z,97.30
2019-05-20T17:16:53.272Z,98.00
2019-05-20T17:19:23.322Z,98.20
2019-05-20T17:21:53.752Z,98.50
2019-05-20T17:24:24.864Z,98.20
2019-05-20T17:26:55.033Z,98.80
2019-05-20T17:29:25.060Z,98.50
2019-05-20T17:31:55.153Z,98.10
2019-05-20T17:34:25.212Z,97.80
2019-05-20T17:36:55.179Z,97.20
2019-05-20T17:39:25.289Z,97.00
2019-05-20T17:41:55.372Z,97.70
2019-05-20T17:44:25.410Z,98.50
2019-05-20T17:46:55.520Z,97.70
2019-05-20T17:49:26.560Z,98.10
2019-05-20T17:51:56.532Z,98.40
2019-05-20T17:54:26.531Z,98.60
2019-05-20T17:56:56.575Z,98.30
2019-05-20T17:59:26.576Z,98.00
2019-05-20T18:01:56.613Z,98.10
2019-05-20T18:04:26.730Z,97.60
2019-05-20T18:06:56.692Z,97.90
2019-05-20T18:09:28.423Z,98.30
2019-05-20T18:11:58.581Z,98.60
2019-05-20T18:14:28.619Z,99.00
2019-05-20T18:16:58.586Z,99.10
2019-05-20T18:19:28.639Z,99.20
2019-05-20T18:21:59.583Z,99.30
2019-05-20T18:24:29.729Z,99.20
2019-05-20T18:26:59.780Z,99.30
2019-05-20T18:29:29.843Z,99.90
2019-05-20T18:31:59.886Z,99.90
2019-05-20T18:34:29.955Z,99.90
2019-05-20T18:36:59.995Z,99.90
2019-05-20T18:39:30.100Z,99.90
2019-05-20T18:42:00.221Z,99.90
2019-05-20T18:44:30.202Z,99.90
2019-05-20T18:47:00.301Z,99.90
2019-05-20T18:49:30.275Z,99.90
2019-05-20T18:52:00.384Z,99.90
2019-05-20T18:54:30.419Z,99.90
2019-05-20T18:57:01.409Z,99.90
2019-05-20T18:59:31.581Z,99.90
2019-05-20T19:02:05.250Z,99.90
2019-05-20T19:04:36.257Z,99.90
2019-05-20T19:07:06.328Z,99.90
2019-05-20T19:09:36.436Z,99.90
2019-05-20T19:12:08.410Z,99.90
2019-05-20T19:14:38.593Z,99.90
2019-05-20T19:17:08.758Z,99.90
2019-05-20T19:19:38.927Z,99.90
2019-05-20T19:22:09.059Z,99.90
2019-05-20T19:24:39.233Z,99.90
2019-05-20T19:27:09.743Z,99.90
2019-05-20T19:29:39.860Z,99.90
2019-05-20T19:32:10.770Z,99.90
2019-05-20T19:34:43.923Z,99.90
2019-05-20T19:37:14.031Z,99.90
2019-05-20T19:39:44.222Z,99.90
2019-05-20T19:42:14.366Z,99.90
2019-05-20T19:44:47.767Z,99.90
2019-05-20T19:47:17.977Z,99.90
2019-05-20T19:49:48.695Z,99.90
2019-05-20T19:52:18.834Z,99.90
2019-05-20T19:54:49.010Z,99.90
2019-05-20T19:57:19.098Z,99.90
2019-05-20T19:59:49.118Z,99.90
2019-05-20T20:02:19.208Z,99.90
2019-05-20T20:04:49.350Z,99.90
2019-05-20T20:07:19.385Z,99.90
2019-05-20T20:09:49.474Z,99.90
2019-05-20T20:12:19.519Z,99.90
2019-05-20T20:14:49.602Z,99.90
2019-05-20T20:17:19.754Z,99.90
2019-05-20T20:19:49.827Z,99.90
2019-05-20T20:22:19.864Z,99.90
2019-05-20T20:24:50.255Z,99.90
2019-05-20T20:27:20.250Z,99.90
2019-05-20T20:29:50.292Z,99.90
2019-05-20T20:32:35.115Z,99.90
2019-05-20T20:34:52.034Z,99.90
2019-05-20T20:37:22.146Z,99.90
2019-05-20T20:39:52.254Z,99.90
2019-05-20T20:42:23.294Z,99.90
2019-05-20T20:44:53.260Z,99.90
2019-05-20T20:47:23.262Z,99.90
2019-05-20T20:49:53.299Z,99.90
2019-05-20T20:52:24.256Z,99.90
2019-05-20T20:54:54.378Z,99.90
2019-05-20T20:57:24.374Z,99.90
2019-05-20T20:59:54.413Z,99.90
2019-05-20T21:02:24.622Z,99.90
2019-05-20T21:04:54.704Z,99.90
2019-05-20T21:07:24.802Z,99.90
2019-05-20T21:09:54.912Z,99.90
2019-05-20T21:12:25.134Z,99.90
2019-05-20T21:14:55.205Z,99.90
2019-05-20T21:17:25.286Z,99.90
2019-05-20T21:19:55.319Z,99.90
2019-05-20T21:22:25.330Z,99.90
2019-05-20T21:24:55.847Z,99.90
2019-05-20T21:27:25.783Z,99.90
2019-05-20T21:29:55.820Z,99.90
2019-05-20T21:32:25.751Z,99.90
2019-05-20T21:34:55.902Z,99.90
2019-05-20T21:37:25.839Z,99.90
2019-05-20T21:39:55.879Z,99.90
2019-05-20T21:42:25.871Z,99.90
2019-05-20T21:44:55.845Z,99.90
2019-05-20T21:47:25.778Z,99.90
2019-05-20T21:49:55.811Z,99.90
2019-05-20T21:52:25.810Z,99.90
2019-05-20T21:54:55.780Z,99.90
2019-05-20T21:57:25.711Z,99.90
2019-05-20T21:59:55.763Z,99.90
2019-05-20T22:02:26.732Z,99.90
2019-05-20T22:04:56.959Z,99.90
2019-05-20T22:07:27.087Z,99.90
2019-05-20T22:09:57.065Z,99.90
2019-05-20T22:12:27.115Z,99.90
2019-05-20T22:14:57.124Z,99.90
2019-05-20T22:17:27.303Z,99.90
2019-05-20T22:19:57.303Z,99.90
2019-05-20T22:22:29.050Z,99.90
2019-05-20T22:24:59.093Z,99.90
2019-05-20T22:27:29.022Z,99.90
2019-05-20T22:29:59.078Z,99.90
2019-05-20T22:32:29.177Z,99.90
2019-05-20T22:34:59.267Z,99.90
2019-05-20T22:37:29.303Z,99.90
2019-05-20T22:39:59.230Z,99.90
2019-05-20T22:42:29.271Z,99.90
2019-05-20T22:44:59.272Z,99.90
2019-05-20T22:47:29.320Z,99.90
2019-05-20T22:49:59.343Z,99.90
2019-05-20T22:52:29.406Z,99.90
2019-05-20T22:54:59.401Z,99.90
2019-05-20T22:57:29.515Z,99.90
2019-05-20T22:59:59.556Z,99.90
2019-05-20T23:02:29.682Z,99.90
2019-05-20T23:04:59.715Z,99.90
2019-05-20T23:07:29.789Z,99.90
2019-05-20T23:09:59.745Z,99.90
2019-05-20T23:12:29.748Z,99.90
2019-05-20T23:14:59.720Z,99.90
2019-05-20T23:17:29.643Z,99.90
2019-05-20T23:19:59.675Z,99.90
2019-05-20T23:22:29.710Z,99.90
2019-05-20T23:24:59.636Z,99.90
2019-05-20T23:27:30.687Z,99.90
2019-05-20T23:30:00.611Z,99.90
2019-05-20T23:32:30.730Z,99.90
2019-05-20T23:35:00.713Z,99.90
2019-05-20T23:37:30.677Z,99.90
2019-05-20T23:40:00.603Z,99.90
2019-05-20T23:42:30.571Z,99.90
2019-05-20T23:45:00.561Z,99.90
2019-05-20T23:47:30.563Z,99.90
2019-05-20T23:50:00.612Z,99.90
2019-05-20T23:52:30.680Z,99.90
2019-05-20T23:55:00.734Z,99.90
2019-05-20T23:57:36.082Z,99.90
